createdAt,value
2022-09-13T00:01:45.866Z,2.80
2022-09-13T00:04:12.633Z,3.00
2022-09-13T00:06:39.351Z,2.97
2022-09-13T00:09:06.064Z,3.20
2022-09-13T00:11:32.874Z,2.78
2022-09-13T00:13:59.854Z,3.47
2022-09-13T00:16:28.521Z,2.80
2022-09-13T00:18:56.161Z,3.05
2022-09-13T00:21:23.838Z,3.22
2022-09-13T00:23:53.273Z,2.83
2022-09-13T00:26:24.212Z,3.05
2022-09-13T00:28:56.224Z,2.93
2022-09-13T00:31:24.505Z,3.45
2022-09-13T00:33:51.565Z,2.95
2022-09-13T00:36:18.889Z,3.33
2022-09-13T00:38:45.777Z,3.22
2022-09-13T00:41:16.149Z,3.58
2022-09-13T00:43:44.572Z,3.15
2022-09-13T00:46:23.752Z,2.53
2022-09-13T00:48:54.459Z,2.83
2022-09-13T00:51:21.430Z,3.00
2022-09-13T00:53:53.550Z,3.40
2022-09-13T00:56:45.543Z,3.13
2022-09-13T00:59:25.410Z,2.92
2022-09-13T01:01:55.164Z,3.45
2022-09-13T01:04:25.537Z,2.85
2022-09-13T01:06:56.503Z,2.65
2022-09-13T01:09:23.999Z,3.00
2022-09-13T01:12:04.545Z,3.03
2022-09-13T01:14:33.144Z,2.95
2022-09-13T01:16:59.942Z,3.53
2022-09-13T01:19:27.915Z,3.47
2022-09-13T01:22:31.255Z,3.50
2022-09-13T01:25:29.898Z,3.58
2022-09-13T01:31:09.990Z,3.17
2022-09-13T01:33:54.513Z,3.75
2022-09-13T01:36:36.528Z,3.67
2022-09-13T01:39:14.699Z,3.35
2022-09-13T01:42:05.187Z,3.22
2022-09-13T01:45:09.327Z,3.25
2022-09-13T01:47:59.131Z,3.40
2022-09-13T01:50:32.856Z,3.60
2022-09-13T01:53:09.565Z,2.95
2022-09-13T01:55:45.023Z,2.70
2022-09-13T01:58:36.613Z,3.83
2022-09-13T02:01:29.950Z,3.03
2022-09-13T02:04:00.893Z,3.78
2022-09-13T02:06:32.511Z,3.70
2022-09-13T02:09:04.512Z,3.30
2022-09-13T02:11:32.985Z,4.18
2022-09-13T02:14:09.207Z,3.05
2022-09-13T02:16:50.792Z,3.78
2022-09-13T02:19:27.395Z,3.75
2022-09-13T02:21:59.769Z,3.72
2022-09-13T02:24:34.777Z,3.13
2022-09-13T02:27:07.155Z,3.53
2022-09-13T02:29:37.545Z,3.30
2022-09-13T02:32:16.645Z,3.45
2022-09-13T02:34:52.502Z,3.70
2022-09-13T02:37:19.807Z,3.40
2022-09-13T02:39:53.297Z,4.47
2022-09-13T02:42:41.760Z,3.67
2022-09-13T02:45:09.074Z,4.47
2022-09-13T02:47:41.888Z,3.85
2022-09-13T02:50:30.146Z,3.58
2022-09-13T02:53:13.749Z,3.58
2022-09-13T02:56:20.204Z,3.70
2022-09-13T02:58:49.913Z,4.50
2022-09-13T03:01:16.939Z,3.88
2022-09-13T03:03:44.709Z,3.83
2022-09-13T03:06:11.436Z,3.97
2022-09-13T03:08:38.366Z,2.95
2022-09-13T03:11:20.400Z,3.50
2022-09-13T03:13:59.586Z,3.78
2022-09-13T03:16:51.083Z,3.95
2022-09-13T03:19:29.677Z,4.10
2022-09-13T03:22:05.233Z,3.63
2022-09-13T03:25:03.730Z,3.45
2022-09-13T03:28:07.786Z,4.10
2022-09-13T03:30:38.476Z,3.88
2022-09-13T03:33:33.659Z,3.40
2022-09-13T03:36:24.773Z,3.60
2022-09-13T03:41:35.121Z,2.90
2022-09-13T03:44:08.393Z,3.95
2022-09-13T03:47:01.207Z,4.10
2022-09-13T03:49:29.067Z,3.90
2022-09-13T03:51:56.537Z,4.03
2022-09-13T03:54:31.351Z,3.33
2022-09-13T03:57:21.354Z,4.10
2022-09-13T03:59:56.179Z,3.25
2022-09-13T04:02:25.215Z,4.32
2022-09-13T04:04:52.333Z,3.40
2022-09-13T04:07:21.586Z,3.60
2022-09-13T04:09:48.923Z,4.28
2022-09-13T04:12:16.920Z,3.53
2022-09-13T04:14:44.149Z,3.60
2022-09-13T04:17:12.147Z,3.85
2022-09-13T04:19:39.250Z,4.32
2022-09-13T04:22:06.410Z,3.17
2022-09-13T04:24:33.174Z,4.07
2022-09-13T04:27:01.532Z,3.40
2022-09-13T04:29:28.913Z,3.63
2022-09-13T04:31:56.154Z,3.75
2022-09-13T04:34:23.528Z,3.60
2022-09-13T04:36:52.432Z,3.72
2022-09-13T04:39:22.296Z,3.67
2022-09-13T04:41:49.699Z,3.45
2022-09-13T04:44:17.690Z,2.63
2022-09-13T04:46:48.058Z,4.07
2022-09-13T04:49:16.590Z,3.17
2022-09-13T04:51:43.587Z,3.22
2022-09-13T04:54:15.289Z,4.03
2022-09-13T04:56:43.727Z,4.60
2022-09-13T04:59:11.678Z,3.22
2022-09-13T05:01:38.719Z,3.63
2022-09-13T05:04:06.984Z,3.80
2022-09-13T05:06:34.425Z,4.07
2022-09-13T05:09:02.041Z,3.42
2022-09-13T05:11:29.642Z,3.47
2022-09-13T05:13:59.865Z,3.70
2022-09-13T05:16:29.213Z,3.40
2022-09-13T05:18:57.055Z,3.58
2022-09-13T05:21:24.538Z,3.33
2022-09-13T05:23:52.224Z,3.97
2022-09-13T05:26:19.040Z,3.70
2022-09-13T05:28:45.775Z,3.72
2022-09-13T05:31:25.933Z,4.00
2022-09-13T05:33:55.199Z,3.70
2022-09-13T05:36:21.969Z,4.03
2022-09-13T05:38:48.768Z,3.72
2022-09-13T05:41:15.474Z,3.30
2022-09-13T05:43:42.187Z,3.83
2022-09-13T05:46:14.256Z,3.38
2022-09-13T05:48:41.764Z,3.72
2022-09-13T05:51:19.865Z,3.20
2022-09-13T05:53:52.162Z,3.83
2022-09-13T05:56:22.192Z,3.85
2022-09-13T05:58:50.579Z,3.37
2022-09-13T06:01:19.732Z,3.45
2022-09-13T06:03:54.180Z,3.45
2022-09-13T06:06:22.419Z,3.50
2022-09-13T06:08:53.474Z,3.95
2022-09-13T06:11:20.221Z,3.40
2022-09-13T06:13:47.080Z,3.40
2022-09-13T06:16:16.175Z,2.80
2022-09-13T06:18:43.675Z,3.42
2022-09-13T06:21:18.216Z,3.75
2022-09-13T06:23:51.090Z,4.10
2022-09-13T06:26:20.270Z,3.88
2022-09-13T06:28:51.800Z,3.20
2022-09-13T06:31:20.610Z,3.00
2022-09-13T06:33:47.868Z,3.47
2022-09-13T06:36:19.793Z,4.00
2022-09-13T06:38:48.837Z,3.47
2022-09-13T06:41:21.863Z,3.13
2022-09-13T06:43:53.630Z,3.42
2022-09-13T06:46:24.863Z,3.35
2022-09-13T06:48:52.735Z,3.70
2022-09-13T06:51:22.120Z,3.38
2022-09-13T06:53:49.508Z,3.03
2022-09-13T06:56:37.970Z,3.35
2022-09-13T06:59:07.727Z,3.42
2022-09-13T07:01:40.976Z,2.60
2022-09-13T07:04:09.868Z,3.25
2022-09-13T07:06:39.265Z,3.50
2022-09-13T07:09:09.865Z,3.20
2022-09-13T07:11:38.769Z,3.22
2022-09-13T07:14:06.812Z,3.90
2022-09-13T07:16:37.367Z,3.80
2022-09-13T07:19:06.498Z,3.85
2022-09-13T07:21:34.943Z,3.90
2022-09-13T07:24:01.930Z,3.20
2022-09-13T07:26:28.742Z,3.15
2022-09-13T07:28:58.640Z,3.15
2022-09-13T07:31:26.720Z,3.27
2022-09-13T07:33:55.798Z,3.63
2022-09-13T07:36:22.994Z,3.17
2022-09-13T07:38:49.980Z,3.63
2022-09-13T07:41:20.884Z,3.13
2022-09-13T07:43:48.133Z,3.55
2022-09-13T07:46:20.434Z,3.38
2022-09-13T07:48:47.967Z,3.28
2022-09-13T07:51:17.803Z,3.20
2022-09-13T07:53:45.621Z,3.33
2022-09-13T07:56:18.234Z,3.13
2022-09-13T07:58:46.945Z,3.13
2022-09-13T08:01:19.061Z,3.70
2022-09-13T08:03:54.366Z,3.03
2022-09-13T08:06:21.862Z,3.08
2022-09-13T08:08:48.583Z,3.13
2022-09-13T08:11:19.196Z,3.80
2022-09-13T08:13:50.474Z,3.17
2022-09-13T08:16:19.708Z,3.35
2022-09-13T08:18:48.045Z,3.25
2022-09-13T08:21:15.597Z,3.40
2022-09-13T08:23:43.283Z,3.45
2022-09-13T08:26:10.700Z,3.15
2022-09-13T08:28:40.349Z,4.22
2022-09-13T08:31:09.736Z,3.60
2022-09-13T08:33:37.164Z,3.38
2022-09-13T08:36:05.263Z,3.33
2022-09-13T08:38:32.420Z,3.70
2022-09-13T08:41:38.669Z,3.20
2022-09-13T08:44:17.134Z,3.47
2022-09-13T08:46:47.616Z,2.88
2022-09-13T08:49:26.301Z,3.08
2022-09-13T08:52:00.933Z,3.03
2022-09-13T08:54:27.743Z,3.03
2022-09-13T08:57:12.056Z,3.40
2022-09-13T09:00:07.239Z,2.88
2022-09-13T09:02:44.217Z,2.65
2022-09-13T09:05:18.468Z,2.70
2022-09-13T09:07:53.619Z,2.83
2022-09-13T09:10:41.517Z,3.17
2022-09-13T09:13:31.371Z,2.85
2022-09-13T09:16:25.479Z,2.40
2022-09-13T09:18:53.849Z,2.88
2022-09-13T09:21:21.859Z,3.78
2022-09-13T09:23:55.371Z,3.42
2022-09-13T09:26:29.237Z,2.88
2022-09-13T09:28:58.274Z,2.55
2022-09-13T09:31:44.441Z,3.13
2022-09-13T09:34:31.207Z,2.58
2022-09-13T09:37:00.909Z,2.75
2022-09-13T09:39:33.204Z,2.75
2022-09-13T09:42:00.476Z,3.28
2022-09-13T09:44:33.675Z,2.40
2022-09-13T09:47:04.965Z,2.90
2022-09-13T09:50:10.807Z,2.83
2022-09-13T09:52:58.607Z,2.80
2022-09-13T09:55:27.884Z,3.05
2022-09-13T09:57:57.433Z,2.65
2022-09-13T10:00:31.311Z,2.70
2022-09-13T10:03:17.125Z,2.58
2022-09-13T10:05:44.120Z,2.78
2022-09-13T10:08:29.059Z,2.63
2022-09-13T10:10:59.447Z,3.13
2022-09-13T10:13:31.480Z,3.05
2022-09-13T10:16:28.236Z,2.88
2022-09-13T10:18:55.698Z,2.60
2022-09-13T10:21:26.915Z,2.47
2022-09-13T10:24:17.408Z,2.58
2022-09-13T10:26:44.302Z,3.13
2022-09-13T10:29:16.575Z,2.70
2022-09-13T10:31:47.190Z,2.90
2022-09-13T10:34:24.306Z,2.25
2022-09-13T10:37:12.228Z,3.00
2022-09-13T10:39:58.185Z,3.03
2022-09-13T10:42:27.726Z,3.92
2022-09-13T10:44:58.222Z,3.15
2022-09-13T10:47:31.181Z,2.72
2022-09-13T10:49:59.473Z,2.70
2022-09-13T10:52:42.171Z,2.88
2022-09-13T10:55:24.031Z,2.60
2022-09-13T10:58:16.627Z,2.35
2022-09-13T11:00:43.353Z,2.90
2022-09-13T11:03:44.272Z,2.45
2022-09-13T11:08:55.543Z,3.22
2022-09-13T11:11:56.922Z,2.90
2022-09-13T11:15:04.136Z,2.60
2022-09-13T11:18:02.451Z,2.33
2022-09-13T11:20:42.442Z,2.63
2022-09-13T11:23:26.541Z,3.27
2022-09-13T11:26:22.292Z,2.40
2022-09-13T11:28:57.879Z,2.88
2022-09-13T11:31:49.699Z,2.60
2022-09-13T11:34:26.061Z,2.75
2022-09-13T11:36:58.755Z,2.42
2022-09-13T11:39:38.672Z,2.70
2022-09-13T11:42:16.761Z,2.30
2022-09-13T11:44:52.427Z,2.80
2022-09-13T11:47:37.251Z,2.28
2022-09-13T11:50:33.662Z,2.42
2022-09-13T11:53:12.519Z,2.42
2022-09-13T11:55:47.849Z,2.40
2022-09-13T11:58:37.924Z,2.08
2022-09-13T12:01:12.738Z,2.40
2022-09-13T12:04:16.946Z,2.28
2022-09-13T12:06:53.682Z,2.67
2022-09-13T12:09:36.223Z,2.15
2022-09-13T12:12:10.218Z,2.35
2022-09-13T12:14:54.482Z,1.85
2022-09-13T12:17:34.159Z,2.47
2022-09-13T12:20:03.472Z,2.25
2022-09-13T12:22:34.945Z,2.30
2022-09-13T12:25:15.933Z,2.20
2022-09-13T12:27:56.713Z,2.03
2022-09-13T12:30:28.678Z,2.22
2022-09-13T12:32:58.855Z,2.25
2022-09-13T12:35:33.841Z,2.08
2022-09-13T12:38:16.307Z,2.30
2022-09-13T12:41:10.907Z,2.50
2022-09-13T12:44:22.830Z,2.10
2022-09-13T12:47:00.945Z,2.13
2022-09-13T12:49:49.956Z,1.90
2022-09-13T12:52:36.908Z,2.20
2022-09-13T12:55:45.490Z,2.40
2022-09-13T12:58:10.694Z,2.75
2022-09-13T13:01:08.606Z,2.45
2022-09-13T13:03:47.192Z,2.42
2022-09-13T13:06:38.317Z,3.00
2022-09-13T13:09:25.294Z,2.90
2022-09-13T13:11:58.225Z,2.80
2022-09-13T13:14:39.956Z,2.70
2022-09-13T13:17:45.866Z,2.58
2022-09-13T13:20:53.834Z,2.60
2022-09-13T13:23:27.531Z,2.33
2022-09-13T13:26:20.917Z,2.90
2022-09-13T13:28:47.791Z,2.50
2022-09-13T13:31:29.893Z,2.10
2022-09-13T13:34:14.800Z,2.50
2022-09-13T13:36:41.481Z,2.72
2022-09-13T13:39:47.177Z,2.80
2022-09-13T13:42:26.902Z,2.38
2022-09-13T13:44:53.576Z,2.47
2022-09-13T13:47:20.873Z,2.35
2022-09-13T13:49:52.555Z,2.47
2022-09-13T13:52:22.360Z,2.55
2022-09-13T13:54:55.611Z,2.87
2022-09-13T13:57:33.470Z,2.38
2022-09-13T14:00:23.619Z,2.42
2022-09-13T14:02:50.296Z,2.45
2022-09-13T14:05:38.750Z,2.53
2022-09-13T14:08:33.515Z,2.47
2022-09-13T14:11:25.122Z,2.45
2022-09-13T14:14:13.823Z,2.60
2022-09-13T14:17:08.075Z,2.67
2022-09-13T14:19:42.478Z,2.60
2022-09-13T14:22:19.177Z,2.35
2022-09-13T14:25:10.438Z,2.22
2022-09-13T14:27:38.002Z,2.03
2022-09-13T14:30:27.264Z,2.00
2022-09-13T14:32:56.310Z,2.00
2022-09-13T14:35:33.019Z,2.33
2022-09-13T14:38:21.478Z,2.42
2022-09-13T14:40:49.803Z,2.15
2022-09-13T14:43:20.013Z,2.60
2022-09-13T14:45:52.134Z,2.00
2022-09-13T14:48:21.973Z,2.28
2022-09-13T14:50:53.674Z,2.10
2022-09-13T14:53:27.700Z,2.25
2022-09-13T14:56:05.410Z,3.03
2022-09-13T14:58:47.841Z,2.13
2022-09-13T15:01:19.312Z,2.38
2022-09-13T15:03:48.148Z,2.00
2022-09-13T15:06:38.103Z,2.30
2022-09-13T15:09:11.048Z,2.20
2022-09-13T15:11:42.351Z,2.70
2022-09-13T15:14:28.538Z,2.40
2022-09-13T15:17:13.987Z,1.90
2022-09-13T15:19:52.383Z,2.28
2022-09-13T15:22:27.866Z,1.95
2022-09-13T15:24:57.049Z,2.63
2022-09-13T15:27:45.136Z,3.22
2022-09-13T15:30:37.627Z,2.80
2022-09-13T15:33:14.298Z,2.88
2022-09-13T15:35:43.614Z,2.60
2022-09-13T15:38:25.136Z,2.90
2022-09-13T15:41:03.011Z,2.78
2022-09-13T15:43:31.246Z,3.25
2022-09-13T15:45:59.312Z,3.00
2022-09-13T15:48:31.994Z,2.85
2022-09-13T15:51:07.714Z,3.13
2022-09-13T15:53:36.688Z,2.78
2022-09-13T15:56:04.846Z,2.80
2022-09-13T15:58:32.606Z,3.30
2022-09-13T16:00:59.746Z,3.08
2022-09-13T16:03:26.533Z,3.10
2022-09-13T16:05:53.722Z,3.22
2022-09-13T16:08:20.853Z,3.60
2022-09-13T16:10:47.592Z,3.70
2022-09-13T16:13:14.404Z,4.13
2022-09-13T16:15:41.381Z,3.50
2022-09-13T16:18:08.662Z,3.17
2022-09-13T16:20:35.365Z,3.25
2022-09-13T16:23:02.030Z,3.60
2022-09-13T16:25:28.905Z,3.30
2022-09-13T16:27:55.690Z,3.67
2022-09-13T16:30:22.509Z,3.47
2022-09-13T16:32:49.397Z,3.20
2022-09-13T16:35:17.067Z,3.13
2022-09-13T16:37:44.467Z,3.03
2022-09-13T16:40:12.142Z,3.40
2022-09-13T16:42:39.254Z,3.20
2022-09-13T16:45:06.840Z,3.33
2022-09-13T16:47:33.602Z,3.60
2022-09-13T16:50:00.527Z,4.22
2022-09-13T16:52:28.849Z,3.70
2022-09-13T16:54:56.426Z,3.38
2022-09-13T16:57:24.150Z,3.97
2022-09-13T16:59:52.656Z,2.95
2022-09-13T17:02:20.477Z,3.50
2022-09-13T17:04:47.339Z,5.43
2022-09-13T17:07:15.253Z,4.65
2022-09-13T17:09:42.330Z,4.60
2022-09-13T17:12:12.065Z,3.90
2022-09-13T17:14:42.595Z,5.78
2022-09-13T17:17:09.803Z,4.63
2022-09-13T17:19:36.828Z,4.47
2022-09-13T17:22:07.987Z,4.57
2022-09-13T17:24:34.852Z,4.43
2022-09-13T17:27:02.060Z,4.45
2022-09-13T17:29:31.034Z,4.95
2022-09-13T17:32:02.373Z,4.60
2022-09-13T17:34:30.658Z,4.53
2022-09-13T17:36:57.433Z,5.47
2022-09-13T17:39:24.130Z,5.15
2022-09-13T17:41:51.408Z,4.68
2022-09-13T17:44:18.504Z,4.80
2022-09-13T17:46:45.309Z,4.65
2022-09-13T17:49:12.059Z,5.03
2022-09-13T17:51:38.905Z,5.25
2022-09-13T17:54:09.609Z,4.80
2022-09-13T17:56:39.519Z,4.43
2022-09-13T17:59:20.318Z,6.38
2022-09-13T18:04:18.139Z,5.13
2022-09-13T18:06:44.960Z,5.13
2022-09-13T18:09:13.917Z,4.53
2022-09-13T18:11:41.165Z,5.68
2022-09-13T18:14:15.380Z,6.82
2022-09-13T18:16:43.138Z,5.38
2022-09-13T18:19:10.186Z,5.22
2022-09-13T18:21:37.348Z,5.82
2022-09-13T18:24:05.050Z,6.40
2022-09-13T18:26:32.651Z,5.65
2022-09-13T18:29:04.115Z,4.95
2022-09-13T18:31:33.111Z,5.38
2022-09-13T18:34:03.018Z,5.75
2022-09-13T18:36:30.854Z,5.30
2022-09-13T18:38:58.038Z,4.95
2022-09-13T18:41:27.291Z,5.47
2022-09-13T18:43:56.020Z,5.40
2022-09-13T18:46:27.723Z,5.18
2022-09-13T18:48:57.703Z,5.20
2022-09-13T18:51:39.677Z,5.70
2022-09-13T18:54:08.468Z,6.45
2022-09-13T18:56:35.774Z,6.63
2022-09-13T18:59:05.371Z,11.48
2022-09-13T19:01:35.105Z,7.95
2022-09-13T19:04:06.993Z,6.90
2022-09-13T19:06:51.999Z,5.55
2022-09-13T19:09:20.877Z,4.68
2022-09-13T19:11:49.830Z,5.07
2022-09-13T19:14:18.801Z,4.93
2022-09-13T19:16:46.227Z,5.35
2022-09-13T19:19:13.199Z,5.10
2022-09-13T19:21:40.196Z,5.78
2022-09-13T19:24:14.867Z,5.25
2022-09-13T19:26:44.852Z,5.65
2022-09-13T19:29:14.256Z,5.38
2022-09-13T19:31:44.771Z,5.82
2022-09-13T19:34:12.180Z,4.85
2022-09-13T19:36:39.759Z,5.72
2022-09-13T19:39:07.384Z,6.00
2022-09-13T19:41:35.347Z,5.82
2022-09-13T19:44:02.904Z,6.95
2022-09-13T19:46:33.161Z,5.68
2022-09-13T19:49:01.640Z,6.07
2022-09-13T19:51:33.882Z,6.10
2022-09-13T19:54:01.517Z,5.05
2022-09-13T19:56:48.625Z,4.68
2022-09-13T19:59:17.192Z,5.07
2022-09-13T20:01:45.976Z,4.88
2022-09-13T20:04:20.878Z,5.53
2022-09-13T20:06:49.940Z,5.65
2022-09-13T20:09:18.722Z,6.10
2022-09-13T20:11:47.326Z,5.40
2022-09-13T20:14:17.444Z,5.75
2022-09-13T20:16:44.570Z,6.32
2022-09-13T20:22:07.840Z,5.63
2022-09-13T20:24:34.703Z,6.70
2022-09-13T20:27:01.481Z,6.93
2022-09-13T20:29:28.330Z,7.80
2022-09-13T20:31:55.523Z,7.70
2022-09-13T20:34:22.462Z,7.30
2022-09-13T20:36:49.201Z,7.10
2022-09-13T20:39:16.270Z,6.60
2022-09-13T20:41:43.936Z,6.35
2022-09-13T20:44:12.172Z,6.20
2022-09-13T20:46:40.501Z,6.53
2022-09-13T20:49:09.162Z,6.63
2022-09-13T20:51:37.301Z,7.10
2022-09-13T20:54:05.267Z,6.95
2022-09-13T20:56:36.791Z,7.05
2022-09-13T20:59:04.293Z,6.53
2022-09-13T21:01:32.436Z,6.60
2022-09-13T21:04:00.048Z,6.65
2022-09-13T21:06:29.247Z,6.43
2022-09-13T21:08:59.802Z,6.72
2022-09-13T21:11:36.002Z,7.97
2022-09-13T21:14:05.728Z,7.63
2022-09-13T21:16:35.799Z,6.88
2022-09-13T21:19:03.444Z,6.85
2022-09-13T21:21:33.669Z,6.95
2022-09-13T21:24:02.872Z,6.55
2022-09-13T21:26:30.114Z,6.78
2022-09-13T21:28:58.588Z,6.80
2022-09-13T21:31:28.166Z,6.82
2022-09-13T21:34:00.111Z,7.32
2022-09-13T21:36:28.165Z,6.20
2022-09-13T21:38:56.230Z,6.70
2022-09-13T21:41:24.997Z,6.95
2022-09-13T21:43:52.354Z,6.72
2022-09-13T21:46:27.293Z,7.05
2022-09-13T21:48:59.486Z,5.65
2022-09-13T21:51:28.221Z,6.28
2022-09-13T21:53:59.063Z,6.80
2022-09-13T21:56:28.915Z,6.65
2022-09-13T21:59:01.452Z,6.70
2022-09-13T22:01:31.844Z,7.22
2022-09-13T22:03:59.550Z,5.75
2022-09-13T22:06:30.182Z,5.68
2022-09-13T22:09:00.964Z,6.57
2022-09-13T22:11:30.436Z,6.38
2022-09-13T22:13:58.331Z,6.35
2022-09-13T22:16:30.165Z,6.80
2022-09-13T22:19:00.008Z,6.38
2022-09-13T22:21:29.636Z,6.85
2022-09-13T22:23:56.848Z,7.10
2022-09-13T22:26:29.253Z,6.88
2022-09-13T22:28:58.898Z,6.90
2022-09-13T22:31:31.864Z,6.97
2022-09-13T22:34:00.475Z,6.95
2022-09-13T22:36:27.851Z,7.03
2022-09-13T22:38:55.254Z,7.75
2022-09-13T22:41:24.758Z,7.53
2022-09-13T22:43:52.243Z,7.70
2022-09-13T22:46:28.786Z,7.78
2022-09-13T22:48:56.083Z,7.50
2022-09-13T22:51:23.921Z,7.03
2022-09-13T22:53:52.457Z,7.47
2022-09-13T22:56:24.997Z,8.00
2022-09-13T22:59:04.525Z,6.93
2022-09-13T23:01:31.818Z,7.15
2022-09-13T23:04:00.267Z,7.18
2022-09-13T23:06:28.692Z,6.38
2022-09-13T23:08:58.256Z,7.03
2022-09-13T23:11:28.237Z,7.70
2022-09-13T23:13:58.549Z,7.50
2022-09-13T23:16:26.601Z,6.82
2022-09-13T23:18:54.255Z,7.32
2022-09-13T23:21:23.621Z,7.30
2022-09-13T23:23:50.668Z,6.78
2022-09-13T23:26:19.442Z,6.70
2022-09-13T23:28:48.298Z,6.95
2022-09-13T23:31:21.283Z,6.68
2022-09-13T23:33:50.832Z,6.63
2022-09-13T23:36:20.109Z,6.75
2022-09-13T23:38:49.567Z,6.50
2022-09-13T23:41:18.064Z,6.70
2022-09-13T23:43:45.591Z,6.13
2022-09-13T23:46:13.124Z,6.47
2022-09-13T23:48:43.974Z,6.63
2022-09-13T23:53:39.316Z,5.43
2022-09-13T23:56:07.964Z,6.03
2022-09-13T23:58:35.775Z,5.80
